Silver Lake, New Hampshire
Current Conditions -  °F | °C
As of 2:54 PM on Friday 24 Oct 2014 (Local Time) from KIZG Reporting Station
Overcast Overcast  
Wind Chill: 53°   Ceiling: 2500
Heat Index: 53°   Visibility: 10mi
Dew Point: 43°   Wind: 8mph
Humidity: 69%   Direction: 10°N
Pressure: 29.68"   Gusts: NA
Location:  43.89°N, 71.18°W
Report Text: KIZG 241854Z AUTO 01007KT 10SM OVC025 12/06 A2968 RMK AO2 SLP051 T01170061
Loading
Personal Weather Stations






























Interactive Weather Map
Tropical Storm Tracking
New forecast layout! Learn more

10-Day Weather Forecast

Advertisements
Track Severe Weather on mobile